createdAt,value
2017-07-02T00:01:59.181Z,10.13
2017-07-02T00:04:25.221Z,9.00
2017-07-02T00:06:51.260Z,8.53
2017-07-02T00:09:17.288Z,8.10
2017-07-02T00:11:43.342Z,8.67
2017-07-02T00:14:09.394Z,8.17
2017-07-02T00:16:36.173Z,8.93
2017-07-02T00:19:02.217Z,8.63
2017-07-02T00:21:28.252Z,7.77
2017-07-02T00:23:54.356Z,6.93
2017-07-02T00:26:20.389Z,7.40
2017-07-02T00:28:46.424Z,8.00
2017-07-02T00:31:12.530Z,9.13
2017-07-02T00:33:38.593Z,7.20
2017-07-02T00:36:04.629Z,8.00
2017-07-02T00:38:30.680Z,6.80
2017-07-02T00:40:57.460Z,7.60
2017-07-02T00:43:23.512Z,7.10
2017-07-02T00:45:50.313Z,9.53
2017-07-02T00:48:16.394Z,9.87
2017-07-02T00:50:42.436Z,8.20
2017-07-02T00:53:08.485Z,7.40
2017-07-02T00:55:35.248Z,9.93
2017-07-02T00:58:01.292Z,7.07
2017-07-02T01:00:27.319Z,7.40
2017-07-02T01:02:54.089Z,7.00
2017-07-02T01:05:20.132Z,7.40
2017-07-02T01:07:46.173Z,6.20
2017-07-02T01:10:12.944Z,6.40
2017-07-02T01:12:38.976Z,6.30
2017-07-02T01:15:05.032Z,6.50
2017-07-02T01:17:31.065Z,6.03
2017-07-02T01:19:57.106Z,6.53
2017-07-02T01:22:23.140Z,6.30
2017-07-02T01:24:49.238Z,6.43
2017-07-02T01:27:15.284Z,6.50
2017-07-02T01:29:41.312Z,5.83
2017-07-02T01:32:07.363Z,5.73
2017-07-02T01:34:34.181Z,6.90
2017-07-02T01:37:00.224Z,6.40
2017-07-02T01:39:26.257Z,6.20
2017-07-02T01:41:52.329Z,8.43
2017-07-02T01:44:19.102Z,8.13
2017-07-02T01:46:45.165Z,7.90
2017-07-02T01:49:11.957Z,7.47
2017-07-02T01:51:38.022Z,8.17
2017-07-02T01:54:04.077Z,8.03
2017-07-02T01:56:30.113Z,6.20
2017-07-02T01:58:56.891Z,7.23
2017-07-02T02:01:35.331Z,6.70
2017-07-02T02:04:01.360Z,8.27
2017-07-02T02:06:27.413Z,7.73
2017-07-02T02:08:53.565Z,6.80
2017-07-02T02:11:20.352Z,7.63
2017-07-02T02:13:46.430Z,8.03
2017-07-02T02:16:12.469Z,8.67
2017-07-02T02:18:38.545Z,9.67
2017-07-02T02:21:04.588Z,8.37
2017-07-02T02:23:30.620Z,8.57
2017-07-02T02:25:56.657Z,7.70
2017-07-02T02:28:22.709Z,9.30
2017-07-02T02:30:48.745Z,7.17
2017-07-02T02:33:14.773Z,7.83
2017-07-02T02:35:40.841Z,7.93
2017-07-02T02:38:06.869Z,7.53
2017-07-02T02:40:33.665Z,7.40
2017-07-02T02:42:59.715Z,7.93
2017-07-02T02:45:25.753Z,8.40
2017-07-02T02:47:51.777Z,8.30
2017-07-02T02:50:17.797Z,9.10
2017-07-02T02:52:43.816Z,8.83
2017-07-02T02:55:09.857Z,9.53
2017-07-02T02:57:35.866Z,8.67
2017-07-02T03:00:01.901Z,8.23
2017-07-02T03:02:27.940Z,7.63
2017-07-02T03:04:53.976Z,7.10
2017-07-02T03:07:20.037Z,7.57
2017-07-02T03:09:46.092Z,8.03
2017-07-02T03:12:12.125Z,8.27
2017-07-02T03:14:38.904Z,6.90
2017-07-02T03:17:04.950Z,8.17
2017-07-02T03:19:30.983Z,6.63
2017-07-02T03:21:57.022Z,7.57
2017-07-02T03:24:23.056Z,8.30
2017-07-02T03:26:49.113Z,7.57
2017-07-02T03:29:15.901Z,6.93
2017-07-02T03:31:41.928Z,7.00
2017-07-02T03:34:07.986Z,7.60
2017-07-02T03:36:34.033Z,7.97
2017-07-02T03:39:00.104Z,8.03
2017-07-02T03:41:26.140Z,8.20
2017-07-02T03:43:52.197Z,8.07
2017-07-02T03:46:18.236Z,7.33
2017-07-02T03:48:44.292Z,7.53
2017-07-02T03:51:10.314Z,8.90
2017-07-02T03:53:36.386Z,8.23
2017-07-02T03:56:02.454Z,8.03
2017-07-02T03:58:28.489Z,7.10
2017-07-02T04:00:54.524Z,9.80
2017-07-02T04:03:20.535Z,8.40
2017-07-02T04:05:46.577Z,8.30
2017-07-02T04:08:12.604Z,9.63
2017-07-02T04:10:38.644Z,7.27
2017-07-02T04:13:04.684Z,7.37
2017-07-02T04:15:31.451Z,7.17
2017-07-02T04:17:57.497Z,8.27
2017-07-02T04:20:23.520Z,9.27
2017-07-02T04:22:49.544Z,7.50
2017-07-02T04:25:16.325Z,7.40
2017-07-02T04:27:42.373Z,7.70
2017-07-02T04:30:09.135Z,9.57
2017-07-02T04:32:35.189Z,7.90
2017-07-02T04:35:01.221Z,7.67
2017-07-02T04:37:28.017Z,10.53
2017-07-02T04:39:54.050Z,8.97
2017-07-02T04:42:20.955Z,8.83
2017-07-02T04:44:47.017Z,8.73
2017-07-02T04:47:13.053Z,7.87
2017-07-02T04:49:39.092Z,8.93
2017-07-02T04:52:05.157Z,7.87
2017-07-02T04:54:31.217Z,7.90
2017-07-02T04:56:58.032Z,8.90
2017-07-02T04:59:24.049Z,10.07
2017-07-02T05:01:50.086Z,9.23
2017-07-02T05:04:16.140Z,10.83
2017-07-02T05:06:42.204Z,9.23
2017-07-02T05:09:08.992Z,10.10
2017-07-02T05:11:35.020Z,10.40
2017-07-02T05:14:01.801Z,11.63
2017-07-02T05:16:27.856Z,12.23
2017-07-02T05:18:54.621Z,10.73
2017-07-02T05:21:20.742Z,13.10
2017-07-02T05:23:47.565Z,13.00
2017-07-02T05:26:13.696Z,14.07
2017-07-02T05:28:39.769Z,12.53
2017-07-02T05:31:05.850Z,12.03
2017-07-02T05:33:39.250Z,14.47
2017-07-02T05:36:05.464Z,12.70
2017-07-02T05:38:31.516Z,14.40
2017-07-02T05:40:57.713Z,11.70
2017-07-02T05:43:23.964Z,13.20
2017-07-02T05:45:50.777Z,12.90
2017-07-02T05:48:17.642Z,13.40
2017-07-02T05:50:43.987Z,11.40
2017-07-02T05:53:11.074Z,12.40
2017-07-02T05:55:37.184Z,12.17
2017-07-02T05:58:03.236Z,9.00
2017-07-02T06:00:29.263Z,13.27
2017-07-02T06:02:55.313Z,12.33
2017-07-02T06:05:22.123Z,13.10
2017-07-02T06:07:48.175Z,14.60
2017-07-02T06:10:14.200Z,14.23
2017-07-02T06:12:40.245Z,14.13
2017-07-02T06:15:06.301Z,13.60
2017-07-02T06:17:32.989Z,16.37
2017-07-02T06:19:59.025Z,14.80
2017-07-02T06:22:25.068Z,14.83
2017-07-02T06:24:51.118Z,14.27
2017-07-02T06:27:17.894Z,13.83
2017-07-02T06:29:43.949Z,14.87
2017-07-02T06:32:10.733Z,10.60
2017-07-02T06:34:36.785Z,13.40
2017-07-02T06:37:03.576Z,11.50
2017-07-02T06:39:29.621Z,14.60
2017-07-02T06:41:55.672Z,13.70
2017-07-02T06:44:21.721Z,12.43
2017-07-02T06:46:47.773Z,13.37
2017-07-02T06:49:13.833Z,14.33
2017-07-02T06:51:39.873Z,12.70
2017-07-02T06:54:06.681Z,11.50
2017-07-02T06:56:32.737Z,12.97
2017-07-02T06:58:58.780Z,11.57
2017-07-02T07:01:24.828Z,13.07
2017-07-02T07:03:50.861Z,13.30
2017-07-02T07:06:16.923Z,12.53
2017-07-02T07:08:43.716Z,13.60
2017-07-02T07:11:16.764Z,11.80
2017-07-02T07:13:42.812Z,12.40
2017-07-02T07:16:08.874Z,13.60
2017-07-02T07:18:34.913Z,11.03
2017-07-02T07:21:00.949Z,10.70
2017-07-02T07:23:27.017Z,12.93
2017-07-02T07:25:53.033Z,11.60
2017-07-02T07:28:19.093Z,12.23
2017-07-02T07:30:45.120Z,9.17
2017-07-02T07:33:11.918Z,10.70
2017-07-02T07:35:37.989Z,12.10
2017-07-02T07:38:04.034Z,10.23
2017-07-02T07:40:30.050Z,10.60
2017-07-02T07:42:56.084Z,11.07
2017-07-02T07:45:22.104Z,10.37
2017-07-02T07:47:48.172Z,8.10
2017-07-02T07:50:14.244Z,9.20
2017-07-02T07:52:40.271Z,11.90
2017-07-02T07:55:06.321Z,11.33
2017-07-02T07:57:33.153Z,12.23
2017-07-02T07:59:59.937Z,13.70
2017-07-02T08:02:25.973Z,14.00
2017-07-02T08:04:52.005Z,13.80
2017-07-02T08:07:18.036Z,13.03
2017-07-02T08:09:44.092Z,9.43
2017-07-02T08:12:10.116Z,14.97
2017-07-02T08:14:36.195Z,15.87
2017-07-02T08:17:02.229Z,14.67
2017-07-02T08:19:28.266Z,13.53
2017-07-02T08:21:54.301Z,12.03
2017-07-02T08:24:20.393Z,15.90
2017-07-02T08:26:46.474Z,15.13
2017-07-02T08:29:13.244Z,15.93
2017-07-02T08:31:39.299Z,14.30
2017-07-02T08:34:06.150Z,13.63
2017-07-02T08:36:33.005Z,10.87
2017-07-02T08:38:59.121Z,16.73
2017-07-02T08:41:25.231Z,13.90
2017-07-02T08:43:51.333Z,14.57
2017-07-02T08:46:17.378Z,15.10
2017-07-02T08:48:43.462Z,14.73
2017-07-02T08:51:09.527Z,13.53
2017-07-02T08:53:35.550Z,14.47
2017-07-02T08:56:01.678Z,12.47
2017-07-02T08:58:27.809Z,14.80
2017-07-02T09:00:53.896Z,12.40
2017-07-02T09:03:19.957Z,13.93
2017-07-02T09:05:45.982Z,12.17
2017-07-02T09:08:12.819Z,16.20
2017-07-02T09:10:38.856Z,12.50
2017-07-02T09:13:04.873Z,14.87
2017-07-02T09:15:30.959Z,15.37
2017-07-02T09:17:57.008Z,14.40
2017-07-02T09:20:23.069Z,14.57
2017-07-02T09:22:49.128Z,12.73
2017-07-02T09:25:15.172Z,11.63
2017-07-02T09:27:41.281Z,12.93
2017-07-02T09:30:08.147Z,13.80
2017-07-02T09:32:34.181Z,13.03
2017-07-02T09:35:00.265Z,14.60
2017-07-02T09:37:26.371Z,12.60
2017-07-02T09:39:52.449Z,14.63
2017-07-02T09:42:19.296Z,13.40
2017-07-02T09:44:45.336Z,13.50
2017-07-02T09:47:11.417Z,11.40
2017-07-02T09:49:37.476Z,12.97
2017-07-02T09:52:03.553Z,12.67
2017-07-02T09:54:29.580Z,9.97
2017-07-02T09:56:55.637Z,6.47
2017-07-02T09:59:22.482Z,7.13
2017-07-02T10:01:48.585Z,5.33
2017-07-02T10:04:14.625Z,5.70
2017-07-02T10:06:40.666Z,5.20
2017-07-02T10:09:06.830Z,3.57
2017-07-02T10:11:32.896Z,3.97
2017-07-02T10:13:59.705Z,5.13
2017-07-02T10:16:25.772Z,4.70
2017-07-02T10:18:51.825Z,5.30
2017-07-02T10:21:17.880Z,3.73
2017-07-02T10:23:43.965Z,4.03
2017-07-02T10:26:11.021Z,4.30
2017-07-02T10:28:37.224Z,6.53
2017-07-02T10:31:03.281Z,4.83
2017-07-02T10:33:29.324Z,4.20
2017-07-02T10:35:55.360Z,6.30
2017-07-02T10:38:21.421Z,5.60
2017-07-02T10:40:47.565Z,6.17
2017-07-02T10:43:13.683Z,5.63
2017-07-02T10:45:40.448Z,5.47
2017-07-02T10:48:06.489Z,5.67
2017-07-02T10:50:32.560Z,5.97
2017-07-02T10:52:58.605Z,6.97
2017-07-02T10:55:24.645Z,5.70
2017-07-02T10:57:50.681Z,6.07
2017-07-02T11:00:16.721Z,6.27
2017-07-02T11:02:42.760Z,6.57
2017-07-02T11:05:08.787Z,6.83
2017-07-02T11:07:34.841Z,5.07
2017-07-02T11:10:00.884Z,5.37
2017-07-02T11:12:26.908Z,4.90
2017-07-02T11:14:52.944Z,4.57
2017-07-02T11:17:18.977Z,3.60
2017-07-02T11:19:45.021Z,5.57
2017-07-02T11:22:11.077Z,4.77
2017-07-02T11:24:37.125Z,4.23
2017-07-02T11:27:03.169Z,5.43
2017-07-02T11:29:29.201Z,4.60
2017-07-02T11:31:55.220Z,4.60
2017-07-02T11:34:21.263Z,3.50
2017-07-02T11:36:47.290Z,3.77
2017-07-02T11:39:13.321Z,3.77
2017-07-02T11:41:39.420Z,3.73
2017-07-02T11:44:05.441Z,3.70
2017-07-02T11:46:31.505Z,2.90
2017-07-02T11:48:57.552Z,3.30
2017-07-02T11:51:23.609Z,3.10
2017-07-02T11:53:49.661Z,4.37
2017-07-02T11:56:15.701Z,4.47
2017-07-02T11:58:41.752Z,3.67
2017-07-02T12:01:08.638Z,4.43
2017-07-02T12:03:34.745Z,2.90
2017-07-02T12:06:00.809Z,5.00
2017-07-02T12:08:27.600Z,3.70
2017-07-02T12:10:53.664Z,3.20
2017-07-02T12:13:19.785Z,4.30
2017-07-02T12:15:45.853Z,3.10
2017-07-02T12:18:11.909Z,2.60
2017-07-02T12:20:37.936Z,3.13
2017-07-02T12:23:04.081Z,3.43
2017-07-02T12:25:31.017Z,4.60
2017-07-02T12:27:57.793Z,3.37
2017-07-02T12:30:23.841Z,3.03
2017-07-02T12:32:49.876Z,3.20
2017-07-02T12:35:15.925Z,2.90
2017-07-02T12:37:41.967Z,4.17
2017-07-02T12:40:08.757Z,3.53
2017-07-02T12:42:34.801Z,4.00
2017-07-02T12:45:00.977Z,3.43
2017-07-02T12:47:27.066Z,3.37
2017-07-02T12:49:53.105Z,3.33
2017-07-02T12:52:19.160Z,1.80
2017-07-02T12:54:45.956Z,2.83
2017-07-02T12:57:11.969Z,3.10
2017-07-02T12:59:38.030Z,2.90
2017-07-02T13:02:04.137Z,3.27
2017-07-02T13:04:30.169Z,3.60
2017-07-02T13:06:56.268Z,3.70
2017-07-02T13:09:22.321Z,2.27
2017-07-02T13:11:48.353Z,2.27
2017-07-02T13:14:15.134Z,2.67
2017-07-02T13:16:41.156Z,2.10
2017-07-02T13:19:07.246Z,2.43
2017-07-02T13:21:33.396Z,1.80
2017-07-02T13:23:59.490Z,2.43
2017-07-02T13:26:25.525Z,2.50
2017-07-02T13:28:52.381Z,2.67
2017-07-02T13:31:18.497Z,2.67
2017-07-02T13:33:44.584Z,3.43
2017-07-02T13:36:10.628Z,3.17
2017-07-02T13:38:36.679Z,2.57
2017-07-02T13:41:02.725Z,2.87
2017-07-02T13:43:28.769Z,2.80
2017-07-02T13:45:54.819Z,2.63
2017-07-02T13:48:21.627Z,2.80
2017-07-02T13:50:47.777Z,2.30
2017-07-02T13:53:13.837Z,2.77
2017-07-02T13:55:39.846Z,3.10
2017-07-02T13:58:05.868Z,2.73
2017-07-02T14:00:31.920Z,3.40
2017-07-02T14:02:57.981Z,2.80
2017-07-02T14:05:24.001Z,3.50
2017-07-02T14:07:50.034Z,3.60
2017-07-02T14:10:16.057Z,3.30
2017-07-02T14:12:42.169Z,2.77
2017-07-02T14:15:08.189Z,3.00
2017-07-02T14:17:34.220Z,2.73
2017-07-02T14:20:00.237Z,3.30
2017-07-02T14:22:26.273Z,2.90
2017-07-02T14:24:53.029Z,3.40
2017-07-02T14:27:19.057Z,3.53
2017-07-02T14:29:45.100Z,3.93
2017-07-02T14:32:11.125Z,3.50
2017-07-02T14:34:37.912Z,3.70
2017-07-02T14:37:03.934Z,4.37
2017-07-02T14:39:30.000Z,3.80
2017-07-02T14:41:56.012Z,3.80
2017-07-02T14:44:22.057Z,3.40
2017-07-02T14:46:48.081Z,3.07
2017-07-02T14:49:14.153Z,3.20
2017-07-02T14:51:40.209Z,4.00
2017-07-02T14:54:07.022Z,3.37
2017-07-02T14:56:33.050Z,2.67
2017-07-02T14:58:59.849Z,2.83
2017-07-02T15:01:26.905Z,3.67
2017-07-02T15:03:53.675Z,2.60
2017-07-02T15:06:19.709Z,2.43
2017-07-02T15:08:45.750Z,2.57
2017-07-02T15:11:12.570Z,1.93
2017-07-02T15:13:39.336Z,2.27
2017-07-02T15:16:05.369Z,2.50
2017-07-02T15:18:31.397Z,2.83
2017-07-02T15:20:57.430Z,2.00
2017-07-02T15:23:24.210Z,2.60
2017-07-02T15:25:50.261Z,1.50
2017-07-02T15:28:16.286Z,1.80
2017-07-02T15:30:42.304Z,1.70
2017-07-02T15:33:08.365Z,2.33
2017-07-02T15:35:34.432Z,1.83
2017-07-02T15:38:00.461Z,2.10
2017-07-02T15:40:26.514Z,1.80
2017-07-02T15:42:52.566Z,2.20
2017-07-02T15:45:18.597Z,1.47
2017-07-02T15:47:44.646Z,2.07
2017-07-02T15:50:10.697Z,1.57
2017-07-02T15:52:36.721Z,1.80
2017-07-02T15:55:02.785Z,2.17
2017-07-02T15:57:28.816Z,1.97
2017-07-02T15:59:54.853Z,2.93
2017-07-02T16:02:20.928Z,1.60
2017-07-02T16:04:47.005Z,3.33
2017-07-02T16:07:13.045Z,1.90
2017-07-02T16:09:39.130Z,1.83
2017-07-02T16:12:05.170Z,1.97
2017-07-02T16:14:31.208Z,2.30
2017-07-02T16:16:57.285Z,2.57
2017-07-02T16:19:23.325Z,2.03
2017-07-02T16:21:49.380Z,1.87
2017-07-02T16:24:15.437Z,2.57
2017-07-02T16:26:41.494Z,2.13
2017-07-02T16:29:07.584Z,1.77
2017-07-02T16:31:33.637Z,2.10
2017-07-02T16:33:59.694Z,1.80
2017-07-02T16:36:25.733Z,2.37
2017-07-02T16:38:51.838Z,2.20
2017-07-02T16:41:17.897Z,1.97
2017-07-02T16:43:43.958Z,1.70
2017-07-02T16:46:10.021Z,2.40
2017-07-02T16:48:36.132Z,2.30
2017-07-02T16:51:02.198Z,1.73
2017-07-02T16:53:28.267Z,1.37
2017-07-02T16:55:54.306Z,1.10
2017-07-02T16:58:20.361Z,1.83
2017-07-02T17:00:46.448Z,2.70
2017-07-02T17:03:12.482Z,1.57
2017-07-02T17:05:38.512Z,2.20
2017-07-02T17:08:04.537Z,2.40
2017-07-02T17:10:30.585Z,2.37
2017-07-02T17:12:56.618Z,2.27
2017-07-02T17:15:22.697Z,3.17
2017-07-02T17:17:48.724Z,2.23
2017-07-02T17:20:14.764Z,2.73
2017-07-02T17:22:40.789Z,3.57
2017-07-02T17:25:06.804Z,3.00
2017-07-02T17:27:32.828Z,2.80
2017-07-02T17:29:58.869Z,2.33
2017-07-02T17:32:24.909Z,2.33
2017-07-02T17:34:50.974Z,3.30
2017-07-02T17:37:17.001Z,2.63
2017-07-02T17:39:43.029Z,2.47
2017-07-02T17:42:16.033Z,4.20
2017-07-02T17:44:42.809Z,3.90
2017-07-02T17:47:08.845Z,2.60
2017-07-02T17:49:34.893Z,4.20
2017-07-02T17:52:00.915Z,2.60
2017-07-02T17:54:27.012Z,3.50
2017-07-02T17:56:53.057Z,3.63
2017-07-02T17:59:19.102Z,2.77
2017-07-02T18:01:45.873Z,3.00
2017-07-02T18:04:11.893Z,4.03
2017-07-02T18:06:37.960Z,2.43
2017-07-02T18:09:04.749Z,2.90
2017-07-02T18:11:30.768Z,2.80
2017-07-02T18:13:56.800Z,2.77
2017-07-02T18:16:23.566Z,3.00
2017-07-02T18:18:49.587Z,3.13
2017-07-02T18:21:15.622Z,2.97
2017-07-02T18:23:41.646Z,2.70
2017-07-02T18:26:07.704Z,2.67
2017-07-02T18:28:33.770Z,2.80
2017-07-02T18:30:59.796Z,3.50
2017-07-02T18:33:25.812Z,3.07
2017-07-02T18:35:51.868Z,2.70
2017-07-02T18:38:17.898Z,3.63
2017-07-02T18:40:44.662Z,2.40
2017-07-02T18:43:10.724Z,3.33
2017-07-02T18:45:37.497Z,2.77
2017-07-02T18:48:03.529Z,2.70
2017-07-02T18:50:29.569Z,2.60
2017-07-02T18:52:55.598Z,2.10
2017-07-02T18:55:21.604Z,2.93
2017-07-02T18:57:47.625Z,2.67
2017-07-02T19:00:13.739Z,2.87
2017-07-02T19:02:39.783Z,3.50
2017-07-02T19:05:05.809Z,3.43
2017-07-02T19:07:31.839Z,2.90
2017-07-02T19:09:58.633Z,3.20
2017-07-02T19:12:24.699Z,3.37
2017-07-02T19:14:50.741Z,3.30
2017-07-02T19:17:16.761Z,3.03
2017-07-02T19:19:42.788Z,3.03
2017-07-02T19:22:09.565Z,3.13
2017-07-02T19:24:35.623Z,2.90
2017-07-02T19:27:02.409Z,3.20
2017-07-02T19:29:28.464Z,2.50
2017-07-02T19:31:54.484Z,3.30
2017-07-02T19:34:21.257Z,3.37
2017-07-02T19:36:47.292Z,4.23
2017-07-02T19:39:13.318Z,2.93
2017-07-02T19:41:39.356Z,4.10
2017-07-02T19:44:05.381Z,4.57
2017-07-02T19:46:31.446Z,2.90
2017-07-02T19:48:58.241Z,3.20
2017-07-02T19:51:24.302Z,2.90
2017-07-02T19:53:50.341Z,3.53
2017-07-02T19:56:16.379Z,3.13
2017-07-02T19:58:42.474Z,2.50
2017-07-02T20:01:08.531Z,2.70
2017-07-02T20:03:34.584Z,3.10
2017-07-02T20:06:00.624Z,3.27
2017-07-02T20:08:26.658Z,2.80
2017-07-02T20:10:52.732Z,3.33
2017-07-02T20:13:18.782Z,3.67
2017-07-02T20:15:44.833Z,3.53
2017-07-02T20:18:10.876Z,3.90
2017-07-02T20:20:37.734Z,3.60
2017-07-02T20:23:03.796Z,4.53
2017-07-02T20:25:36.668Z,4.90
2017-07-02T20:28:02.730Z,4.10
2017-07-02T20:30:28.777Z,3.07
2017-07-02T20:32:54.840Z,3.97
2017-07-02T20:35:21.097Z,4.40
2017-07-02T20:37:47.194Z,6.07
2017-07-02T20:40:13.253Z,3.70
2017-07-02T20:42:39.285Z,3.60
2017-07-02T20:45:05.337Z,3.30
2017-07-02T20:47:31.377Z,3.13
2017-07-02T20:49:57.410Z,3.67
2017-07-02T20:52:23.442Z,5.90
2017-07-02T20:54:49.505Z,4.27
2017-07-02T20:57:15.554Z,4.73
2017-07-02T20:59:41.593Z,3.97
2017-07-02T21:02:07.633Z,3.87
2017-07-02T21:04:34.433Z,3.17
2017-07-02T21:07:00.481Z,2.77
2017-07-02T21:09:26.533Z,3.97
2017-07-02T21:11:52.612Z,3.40
2017-07-02T21:14:18.653Z,3.30
2017-07-02T21:16:44.688Z,3.27
2017-07-02T21:19:11.472Z,2.73
2017-07-02T21:21:37.545Z,3.27
2017-07-02T21:24:03.578Z,3.00
2017-07-02T21:26:29.608Z,3.00
2017-07-02T21:28:55.661Z,3.90
2017-07-02T21:31:21.725Z,3.10
2017-07-02T21:33:47.828Z,3.37
2017-07-02T21:36:13.924Z,3.37
2017-07-02T21:38:39.968Z,3.20
2017-07-02T21:41:06.001Z,5.03
2017-07-02T21:43:32.041Z,3.30
2017-07-02T21:45:59.009Z,3.00
2017-07-02T21:48:25.103Z,3.27
2017-07-02T21:50:51.419Z,3.30
2017-07-02T21:53:17.904Z,3.83
2017-07-02T21:55:44.032Z,3.73
2017-07-02T21:58:11.143Z,3.80
2017-07-02T22:00:37.208Z,3.57
2017-07-02T22:03:03.255Z,3.90
2017-07-02T22:05:30.007Z,3.10
2017-07-02T22:07:57.079Z,3.00
2017-07-02T22:10:23.934Z,4.10
2017-07-02T22:12:49.956Z,2.90
2017-07-02T22:15:16.713Z,3.13
2017-07-02T22:17:42.725Z,3.17
2017-07-02T22:20:08.759Z,4.30
2017-07-02T22:22:34.788Z,3.17
2017-07-02T22:25:01.553Z,3.07
2017-07-02T22:27:27.620Z,3.87
2017-07-02T22:29:53.648Z,3.53
2017-07-02T22:32:20.400Z,3.73
2017-07-02T22:34:46.433Z,4.70
2017-07-02T22:37:12.445Z,2.73
2017-07-02T22:39:38.581Z,3.53
2017-07-02T22:42:04.613Z,3.63
2017-07-02T22:44:30.657Z,4.13
2017-07-02T22:46:56.685Z,3.03
2017-07-02T22:49:22.749Z,5.37
2017-07-02T22:51:48.756Z,4.30
2017-07-02T22:54:14.804Z,3.43
2017-07-02T22:56:40.831Z,4.70
2017-07-02T22:59:06.845Z,4.30
2017-07-02T23:01:32.863Z,4.90
2017-07-02T23:04:06.540Z,4.80
2017-07-02T23:06:32.676Z,4.33
2017-07-02T23:08:58.696Z,4.83
2017-07-02T23:11:24.757Z,3.30
2017-07-02T23:13:50.794Z,3.17
2017-07-02T23:16:17.576Z,3.90
2017-07-02T23:18:43.620Z,4.40
2017-07-02T23:21:09.648Z,3.70
2017-07-02T23:23:35.701Z,4.17
2017-07-02T23:26:01.728Z,3.50
2017-07-02T23:28:27.786Z,4.03
2017-07-02T23:30:53.848Z,3.60
2017-07-02T23:33:19.885Z,5.43
2017-07-02T23:35:46.669Z,3.63
2017-07-02T23:38:12.725Z,4.10
2017-07-02T23:40:38.753Z,3.97
2017-07-02T23:43:04.784Z,5.60
2017-07-02T23:45:30.819Z,3.97
2017-07-02T23:47:56.893Z,5.20
2017-07-02T23:50:22.933Z,4.30
2017-07-02T23:52:48.973Z,4.57
2017-07-02T23:55:15.746Z,4.90
2017-07-02T23:57:41.806Z,3.63
